KPIA METAR and TAF | Updated Today

KPIA METAR

General Wayne A. Downing Peoria International Airport

Observation time: 5 min. ago

KPIA 301954Z 29015G29KT 10SM CLR M01/M12 A3021 RMK AO2 PK WND 27031/1939 SLP239 T10061117

Need help? Read our tutorial on how to read METARs or read the parsed version below.

General Wayne A. Downing Peoria International Airport (KPIA) METAR

  • Weather conditions on Wed, 30 Nov 2022 19:54:00 +0000 (5 min. ago):
  • Present conditions: Dry
  • Clouds: Clear skies
  • Visibility: 16093 meters
  • Wind: 290 degrees at 15 knots
  • Temperature: -1 celsius
  • Dew point: -12 celsius
  • Pressure: 30.21 inHg
  • Remarks: AO2 PK WND 27031/1939 SLP239 T10061117


Useful to know...

KPIA TAF

General Wayne A. Downing Peoria International Airport

KPIA 301720Z 3018/0118 28016G25KT P6SM FEW025 FM302300 27011G19KT P6SM SKC FM010400 27007KT P6SM SCT250
Observation time: 2:39 hr. ago
Need help? Read our tutorial on how to read TAFs or read the parsed version below.

Parsed version of TAF for General Wayne A. Downing Peoria International Airport (KPIA)

  • From 30 November at 18:00 UTC, to day 01 of the month at 18:00 UTC
  • Clouds: A few at 762 meters
  • Wind: 280 degrees at 16
  • From day 30 of the month at 23:00 UTC
  • Clouds: No significant changes expected
  • Wind: 270 degrees at 11
  • From day 1 of the month at 04:00 UTC
  • Clouds: Scattered at 7620 meters
  • Wind: 270 degrees at 7

Airports near KPIA